Time;durP1;ratioP1;P1;durP2;ratioP2;P2;SDS_P1;SDS_P2;PMS_P1;PMS_P2;Temp;Humidity;BMP_temperature;BMP_pressure;BME280_temperature;BME280_humidity;BME280_pressure;Samples;Min_cycle;Max_cycle;Signal;HPM_P1;HPM_P2
2021/01/08 00:01:57;;;;;;;;;;;27.50;40.30;;;;;;5072688;28;19915;-54
2021/01/08 00:04:22;;;;;;;;;;;27.50;40.40;;;;;;5072649;28;19908;-55
2021/01/08 00:06:53;;;;;;;;;;;27.50;40.30;;;;;;5072466;28;19908;-54
2021/01/08 00:09:18;;;;;;;;;;;27.50;40.30;;;;;;5072617;28;19966;-54
2021/01/08 00:11:44;;;;;;;;;;;27.50;40.30;;;;;;5089866;28;20378;-55
2021/01/08 00:14:09;;;;;;;;;;;27.50;40.40;;;;;;5096294;28;19933;-54
2021/01/08 00:16:35;;;;;;;;;;;27.50;40.30;;;;;;5096475;28;19958;-56
2021/01/08 00:19:00;;;;;;;;;;;27.50;40.30;;;;;;5096373;28;20320;-56
2021/01/08 00:21:42;;;;;;;;;;;27.50;40.30;;;;;;5096501;28;19930;-57
2021/01/08 00:24:11;;;;;;;;;;;27.50;40.20;;;;;;5086206;28;19913;-54
2021/01/08 00:26:36;;;;;;;;;;;27.40;40.20;;;;;;5075960;28;19912;-53
2021/01/08 00:29:02;;;;;;;;;;;27.40;40.30;;;;;;5075543;28;19928;-54
2021/01/08 00:31:40;;;;;;;;;;;27.40;40.30;;;;;;5075887;28;19908;-58
2021/01/08 00:34:06;;;;;;;;;;;27.50;40.30;;;;;;5075909;28;19966;-57
2021/01/08 00:36:32;;;;;;;;;;;27.50;40.30;;;;;;5075876;28;20339;-57
2021/01/08 00:38:57;;;;;;;;;;;27.50;40.80;;;;;;5085095;28;20002;-56
2021/01/08 00:41:29;;;;;;;;;;;27.50;40.20;;;;;;5095929;28;19912;-58
2021/01/08 00:43:54;;;;;;;;;;;27.50;40.30;;;;;;5096069;28;19908;-59
2021/01/08 00:46:20;;;;;;;;;;;27.50;40.20;;;;;;5095838;28;19908;-57
2021/01/08 00:48:47;;;;;;;;;;;27.50;40.30;;;;;;5095779;28;20370;-57
2021/01/08 00:51:13;;;;;;;;;;;27.40;40.80;;;;;;5079754;28;19923;-57
2021/01/08 00:53:39;;;;;;;;;;;27.50;40.30;;;;;;5075064;28;19921;-56
2021/01/08 00:56:04;;;;;;;;;;;27.50;40.20;;;;;;5075573;28;19912;-55
2021/01/08 00:58:30;;;;;;;;;;;27.40;40.30;;;;;;5075436;28;20270;-55
2021/01/08 01:00:55;;;;;;;;;;;27.50;40.20;;;;;;5075141;28;19950;-55
2021/01/08 01:03:21;;;;;;;;;;;27.40;40.80;;;;;;5075171;28;19913;-55
2021/01/08 01:05:46;;;;;;;;;;;27.50;40.30;;;;;;5089279;28;20285;-56
2021/01/08 01:08:12;;;;;;;;;;;27.40;40.20;;;;;;5076590;28;19916;-58
2021/01/08 01:10:37;;;;;;;;;;;27.50;40.30;;;;;;5075207;28;19912;-54
2021/01/08 01:13:03;;;;;;;;;;;27.50;40.20;;;;;;5074863;28;19916;-55
2021/01/08 01:15:28;;;;;;;;;;;27.40;40.20;;;;;;5075041;28;19987;-57
2021/01/08 01:17:54;;;;;;;;;;;27.40;40.30;;;;;;5074829;28;19977;-55
2021/01/08 01:20:19;;;;;;;;;;;27.40;40.30;;;;;;5074236;28;19917;-55
2021/01/08 01:22:45;;;;;;;;;;;27.40;40.30;;;;;;5074724;28;19909;-57
2021/01/08 01:25:10;;;;;;;;;;;27.40;40.30;;;;;;5074734;28;19909;-54
2021/01/08 01:27:38;;;;;;;;;;;27.40;40.10;;;;;;5074976;28;19920;-54
2021/01/08 01:30:05;;;;;;;;;;;27.40;40.90;;;;;;5090227;28;20306;-55
2021/01/08 01:32:30;;;;;;;;;;;27.40;40.30;;;;;;5085149;28;19927;-55
2021/01/08 01:34:56;;;;;;;;;;;27.40;40.80;;;;;;5094760;28;20289;-54
2021/01/08 01:37:21;;;;;;;;;;;27.40;40.30;;;;;;5094627;28;20006;-56
2021/01/08 01:39:47;;;;;;;;;;;27.40;40.90;;;;;;5094785;28;19912;-53
2021/01/08 01:42:12;;;;;;;;;;;27.40;40.30;;;;;;5094654;28;20601;-56
2021/01/08 01:44:38;;;;;;;;;;;27.40;40.20;;;;;;5094487;28;19912;-55
2021/01/08 01:47:03;;;;;;;;;;;27.40;40.10;;;;;;5085378;28;19922;-55
2021/01/08 01:49:28;;;;;;;;;;;27.40;40.10;;;;;;5090186;28;20306;-54
2021/01/08 01:51:54;;;;;;;;;;;27.40;40.10;;;;;;5074105;28;19962;-57
2021/01/08 01:54:19;;;;;;;;;;;27.40;40.30;;;;;;5074423;28;19913;-57
2021/01/08 01:56:45;;;;;;;;;;;27.40;40.30;;;;;;5074001;28;20321;-57
2021/01/08 01:59:10;;;;;;;;;;;27.40;40.30;;;;;;5074125;28;19908;-57
2021/01/08 02:01:36;;;;;;;;;;;27.40;40.20;;;;;;5080900;28;20421;-56
2021/01/08 02:04:01;;;;;;;;;;;27.30;40.80;;;;;;5094517;28;19913;-57
2021/01/08 02:06:31;;;;;;;;;;;27.40;40.30;;;;;;5093190;28;19908;-58
2021/01/08 02:08:57;;;;;;;;;;;27.40;40.30;;;;;;5094186;28;20054;-57
2021/01/08 02:11:23;;;;;;;;;;;27.40;40.30;;;;;;5093088;28;20036;-54
2021/01/08 02:13:57;;;;;;;;;;;27.40;40.20;;;;;;5093865;28;20378;-54
2021/01/08 02:16:23;;;;;;;;;;;27.40;40.20;;;;;;5084908;28;20378;-55
2021/01/08 02:18:49;;;;;;;;;;;27.40;40.30;;;;;;5087271;28;19982;-54
2021/01/08 02:21:18;;;;;;;;;;;27.40;40.30;;;;;;5089294;28;19954;-57
2021/01/08 02:23:49;;;;;;;;;;;27.40;40.20;;;;;;5089195;28;19912;-57
2021/01/08 02:26:15;;;;;;;;;;;27.40;40.20;;;;;;5089434;28;19999;-58
2021/01/08 02:28:40;;;;;;;;;;;27.30;40.20;;;;;;5089003;28;20410;-57
2021/01/08 02:31:06;;;;;;;;;;;27.40;40.10;;;;;;5092045;28;19926;-54
2021/01/08 02:33:31;;;;;;;;;;;27.40;40.10;;;;;;5093556;28;20259;-54
2021/01/08 02:35:58;;;;;;;;;;;27.40;40.10;;;;;;5093439;28;19914;-53
2021/01/08 02:38:24;;;;;;;;;;;27.30;40.20;;;;;;5093917;28;20006;-55
2021/01/08 02:40:50;;;;;;;;;;;27.30;40.20;;;;;;5092478;28;20402;-55
2021/01/08 02:43:19;;;;;;;;;;;27.30;40.20;;;;;;5092214;28;19978;-54
2021/01/08 02:45:45;;;;;;;;;;;27.30;40.20;;;;;;5091538;28;19963;-58
2021/01/08 02:48:10;;;;;;;;;;;27.30;40.20;;;;;;5073114;28;20370;-54
2021/01/08 02:50:36;;;;;;;;;;;27.40;40.30;;;;;;5073086;28;19955;-55
2021/01/08 02:53:05;;;;;;;;;;;27.30;40.20;;;;;;5074395;28;19928;-53
2021/01/08 02:55:30;;;;;;;;;;;27.30;40.20;;;;;;5073340;28;19999;-56
2021/01/08 02:58:00;;;;;;;;;;;27.30;40.20;;;;;;5073137;28;19951;-56
2021/01/08 03:00:28;;;;;;;;;;;27.30;40.20;;;;;;5072881;28;19919;-55
2021/01/08 03:02:54;;;;;;;;;;;27.30;40.10;;;;;;5073183;28;19943;-55
2021/01/08 03:05:20;;;;;;;;;;;27.30;40.20;;;;;;5088529;28;19963;-54
2021/01/08 03:07:46;;;;;;;;;;;27.30;40.20;;;;;;5072263;28;19912;-55
2021/01/08 03:10:11;;;;;;;;;;;27.30;40.20;;;;;;5071973;28;19920;-54
2021/01/08 03:12:37;;;;;;;;;;;27.30;40.20;;;;;;5088557;28;20015;-53
2021/01/08 03:15:03;;;;;;;;;;;27.30;40.20;;;;;;5088555;28;20301;-56
2021/01/08 03:17:33;;;;;;;;;;;27.30;40.20;;;;;;5084597;28;20042;-67
2021/01/08 03:19:59;;;;;;;;;;;27.20;40.40;;;;;;5071682;28;19999;-65
2021/01/08 03:22:24;;;;;;;;;;;27.20;40.70;;;;;;5071421;28;20662;-64
2021/01/08 03:24:50;;;;;;;;;;;27.30;40.60;;;;;;5072960;28;20298;-66
2021/01/08 03:27:18;;;;;;;;;;;27.40;40.50;;;;;;5083520;28;19917;-63
2021/01/08 03:29:45;;;;;;;;;;;27.50;40.40;;;;;;5071886;28;19921;-64
2021/01/08 03:32:11;;;;;;;;;;;27.60;40.20;;;;;;5070984;28;20018;-63
2021/01/08 03:34:37;;;;;;;;;;;27.60;40.20;;;;;;5072388;28;20065;-63
2021/01/08 03:37:02;;;;;;;;;;;27.60;40.20;;;;;;5072573;28;20382;-61
2021/01/08 03:39:28;;;;;;;;;;;27.60;40.20;;;;;;5087740;28;19912;-60
2021/01/08 03:41:53;;;;;;;;;;;27.60;40.20;;;;;;5089182;28;19950;-62
2021/01/08 03:44:19;;;;;;;;;;;27.60;40.20;;;;;;5082674;28;19971;-63
2021/01/08 03:46:44;;;;;;;;;;;27.60;40.20;;;;;;5073051;28;19909;-64
2021/01/08 03:49:10;;;;;;;;;;;27.60;40.20;;;;;;5076138;28;19958;-69
2021/01/08 03:51:35;;;;;;;;;;;27.60;40.20;;;;;;5076218;28;19921;-65
2021/01/08 03:54:01;;;;;;;;;;;27.70;40.20;;;;;;5076218;28;19939;-65
2021/01/08 03:56:26;;;;;;;;;;;27.70;40.10;;;;;;5076105;28;19916;-66
2021/01/08 03:58:52;;;;;;;;;;;27.70;40.10;;;;;;5078980;28;19972;-65
2021/01/08 04:01:17;;;;;;;;;;;27.70;40.20;;;;;;5076075;28;19913;-63
2021/01/08 04:03:42;;;;;;;;;;;27.70;40.30;;;;;;5076175;28;19951;-61
2021/01/08 04:06:08;;;;;;;;;;;27.70;40.20;;;;;;5076225;28;20359;-64
2021/01/08 04:08:33;;;;;;;;;;;27.70;40.10;;;;;;5075928;28;20024;-63
2021/01/08 04:10:59;;;;;;;;;;;27.70;40.10;;;;;;5085286;28;19919;-61
2021/01/08 04:13:24;;;;;;;;;;;27.70;40.10;;;;;;5092028;28;19967;-63
2021/01/08 04:15:50;;;;;;;;;;;27.70;40.10;;;;;;5075741;28;19908;-64
2021/01/08 04:18:15;;;;;;;;;;;27.70;40.10;;;;;;5075076;28;20335;-64
2021/01/08 04:20:41;;;;;;;;;;;27.70;40.10;;;;;;5075848;28;20378;-63
2021/01/08 04:23:06;;;;;;;;;;;27.70;40.10;;;;;;5075537;28;19912;-62
2021/01/08 04:25:32;;;;;;;;;;;27.70;40.10;;;;;;5075573;28;19908;-62
2021/01/08 04:27:57;;;;;;;;;;;27.70;40.30;;;;;;5075116;28;19909;-63
2021/01/08 04:30:23;;;;;;;;;;;27.70;40.30;;;;;;5069170;28;19960;-61
2021/01/08 04:32:49;;;;;;;;;;;27.80;40.30;;;;;;5055554;28;19916;-62
2021/01/08 04:35:14;;;;;;;;;;;27.80;40.30;;;;;;5055365;28;19931;-61
2021/01/08 04:37:40;;;;;;;;;;;27.70;40.30;;;;;;5055549;28;19909;-64
2021/01/08 04:40:06;;;;;;;;;;;27.80;40.30;;;;;;5055325;28;20294;-64
2021/01/08 04:42:32;;;;;;;;;;;27.80;40.10;;;;;;5055110;28;19913;-69
2021/01/08 04:44:58;;;;;;;;;;;27.80;40.20;;;;;;5063770;28;20021;-64
2021/01/08 04:47:23;;;;;;;;;;;27.80;40.10;;;;;;5077840;28;20317;-62
2021/01/08 04:49:49;;;;;;;;;;;27.80;40.30;;;;;;5073767;28;19918;-69
2021/01/08 04:52:14;;;;;;;;;;;27.70;40.30;;;;;;5074816;28;19924;-60
2021/01/08 04:54:40;;;;;;;;;;;27.70;40.30;;;;;;5074904;28;19920;-60
2021/01/08 04:57:06;;;;;;;;;;;27.80;40.20;;;;;;5090504;28;19912;-58
2021/01/08 04:59:31;;;;;;;;;;;27.70;40.30;;;;;;5078320;28;20337;-62
2021/01/08 05:01:57;;;;;;;;;;;27.70;40.30;;;;;;5074231;28;19965;-61
2021/01/08 05:04:22;;;;;;;;;;;27.60;40.20;;;;;;5075339;28;19935;-62
2021/01/08 05:06:48;;;;;;;;;;;27.60;40.20;;;;;;5073923;28;19908;-59
2021/01/08 05:09:13;;;;;;;;;;;27.60;40.20;;;;;;5074157;28;19909;-58
2021/01/08 05:11:39;;;;;;;;;;;27.60;40.20;;;;;;5090194;28;19912;-62
2021/01/08 05:14:04;;;;;;;;;;;27.60;40.00;;;;;;5095643;28;20414;-64
2021/01/08 05:16:30;;;;;;;;;;;27.60;40.20;;;;;;5085775;28;19919;-67
2021/01/08 05:18:57;;;;;;;;;;;27.60;40.00;;;;;;5072899;28;19909;-65
2021/01/08 05:21:25;;;;;;;;;;;27.70;40.00;;;;;;5074748;28;20366;-66
2021/01/08 05:23:51;;;;;;;;;;;27.80;40.00;;;;;;5075017;28;19909;-65
2021/01/08 05:26:17;;;;;;;;;;;27.80;39.90;;;;;;5077180;28;20404;-68
2021/01/08 05:28:46;;;;;;;;;;;27.80;39.80;;;;;;5074624;28;19919;-62
2021/01/08 05:31:17;;;;;;;;;;;27.80;39.90;;;;;;5074894;28;19961;-62
2021/01/08 05:33:42;;;;;;;;;;;27.70;40.00;;;;;;5080622;28;20034;-63
2021/01/08 05:36:11;;;;;;;;;;;27.70;40.10;;;;;;5084069;28;20004;-61
2021/01/08 05:38:39;;;;;;;;;;;27.70;39.90;;;;;;5074455;28;19952;-62
2021/01/08 05:41:07;;;;;;;;;;;27.70;40.00;;;;;;5089280;28;19909;-64
2021/01/08 05:43:32;;;;;;;;;;;27.60;40.00;;;;;;5074020;28;19943;-64
2021/01/08 05:46:15;;;;;;;;;;;27.70;40.00;;;;;;5072954;28;19947;-60
2021/01/08 05:48:41;;;;;;;;;;;27.70;39.90;;;;;;5073406;28;19952;-62
2021/01/08 05:51:06;;;;;;;;;;;27.80;39.90;;;;;;5071388;28;19916;-70
2021/01/08 05:53:33;;;;;;;;;;;27.80;39.80;;;;;;5073099;28;19920;-73
2021/01/08 05:55:59;;;;;;;;;;;27.80;39.80;;;;;;5074359;28;19918;-61
2021/01/08 05:58:24;;;;;;;;;;;27.80;39.70;;;;;;5074300;28;19991;-62
2021/01/08 06:00:53;;;;;;;;;;;27.80;39.70;;;;;;5073941;28;19916;-63
2021/01/08 06:03:18;;;;;;;;;;;27.80;39.70;;;;;;5076733;28;19916;-60
2021/01/08 06:05:44;;;;;;;;;;;27.80;39.60;;;;;;5093506;28;19934;-63
2021/01/08 06:08:09;;;;;;;;;;;27.80;39.70;;;;;;5089915;28;20385;-62
2021/01/08 06:10:35;;;;;;;;;;;27.80;39.60;;;;;;5088629;28;19919;-64
2021/01/08 06:13:00;;;;;;;;;;;27.80;39.60;;;;;;5089640;28;20051;-64
2021/01/08 06:15:25;;;;;;;;;;;27.80;39.60;;;;;;5089602;28;19912;-65
2021/01/08 06:17:51;;;;;;;;;;;27.80;39.50;;;;;;5071599;28;19908;-61
2021/01/08 06:20:16;;;;;;;;;;;27.80;39.60;;;;;;5070573;28;19908;-62
2021/01/08 06:22:42;;;;;;;;;;;27.80;39.60;;;;;;5073503;28;20050;-63
2021/01/08 06:25:08;;;;;;;;;;;27.80;39.50;;;;;;5073810;28;19915;-64
2021/01/08 06:27:34;;;;;;;;;;;27.80;39.50;;;;;;5073771;28;19916;-63
2021/01/08 06:30:00;;;;;;;;;;;27.80;39.50;;;;;;5073620;28;20294;-63
2021/01/08 06:32:29;;;;;;;;;;;27.80;39.50;;;;;;5089573;28;19934;-64
2021/01/08 06:35:00;;;;;;;;;;;27.80;39.50;;;;;;5093537;28;20393;-63
2021/01/08 06:37:26;;;;;;;;;;;27.80;39.50;;;;;;5093790;28;19914;-61
2021/01/08 06:39:52;;;;;;;;;;;27.80;39.50;;;;;;5092281;28;19908;-61
2021/01/08 06:42:24;;;;;;;;;;;27.80;39.50;;;;;;5092338;28;19915;-61
2021/01/08 06:44:49;;;;;;;;;;;27.80;39.80;;;;;;5092556;28;20302;-62
2021/01/08 06:47:15;;;;;;;;;;;27.80;39.60;;;;;;5074887;28;19912;-71
2021/01/08 06:49:40;;;;;;;;;;;27.80;39.60;;;;;;5073272;28;19916;-63
2021/01/08 06:52:06;;;;;;;;;;;27.80;39.50;;;;;;5089232;28;19921;-64
2021/01/08 06:54:31;;;;;;;;;;;27.80;39.50;;;;;;5073692;28;19912;-66
2021/01/08 06:56:57;;;;;;;;;;;27.80;39.60;;;;;;5088956;28;20443;-66
2021/01/08 06:59:23;;;;;;;;;;;27.80;39.50;;;;;;5073253;28;19908;-64
2021/01/08 07:02:10;;;;;;;;;;;27.80;39.40;;;;;;5088725;28;19913;-63
2021/01/08 07:04:37;;;;;;;;;;;27.80;39.50;;;;;;5073284;28;19919;-65
2021/01/08 07:07:04;;;;;;;;;;;27.80;39.60;;;;;;5075391;28;19915;-64
2021/01/08 07:09:36;;;;;;;;;;;27.70;39.50;;;;;;5090559;28;19963;-65
2021/01/08 07:12:01;;;;;;;;;;;27.70;39.40;;;;;;5093318;28;20036;-59
2021/01/08 07:14:27;;;;;;;;;;;27.60;39.70;;;;;;5093091;28;20509;-59
2021/01/08 07:16:53;;;;;;;;;;;27.50;39.70;;;;;;5081922;28;19967;-60
2021/01/08 07:19:19;;;;;;;;;;;27.60;39.60;;;;;;5072941;28;19999;-58
2021/01/08 07:21:51;;;;;;;;;;;27.60;39.50;;;;;;5072874;28;19908;-59
2021/01/08 07:24:25;;;;;;;;;;;27.60;39.50;;;;;;5082831;28;20002;-59
2021/01/08 07:26:51;;;;;;;;;;;27.60;39.40;;;;;;5093109;28;20344;-59
2021/01/08 07:29:25;;;;;;;;;;;27.60;39.40;;;;;;5092575;28;20374;-60
2021/01/08 07:31:50;;;;;;;;;;;27.70;39.40;;;;;;5093092;28;19916;-60
2021/01/08 07:34:15;;;;;;;;;;;27.60;39.30;;;;;;5091573;28;20289;-60
2021/01/08 07:36:41;;;;;;;;;;;27.60;39.30;;;;;;5092676;28;19908;-58
2021/01/08 07:39:26;;;;;;;;;;;27.60;39.30;;;;;;5089029;28;19912;-59
2021/01/08 07:41:52;;;;;;;;;;;27.60;39.30;;;;;;5074782;28;19912;-59
2021/01/08 07:44:31;;;;;;;;;;;27.60;39.30;;;;;;5072715;28;19916;-60
2021/01/08 07:46:56;;;;;;;;;;;27.60;39.20;;;;;;5072468;28;19995;-58
2021/01/08 07:49:27;;;;;;;;;;;27.60;39.30;;;;;;5072504;28;19931;-59
2021/01/08 07:51:53;;;;;;;;;;;27.60;39.20;;;;;;5066244;28;19966;-60
2021/01/08 07:54:38;;;;;;;;;;;27.60;39.10;;;;;;5060663;28;19912;-60
2021/01/08 07:57:04;;;;;;;;;;;27.60;39.10;;;;;;5052335;28;19909;-58
2021/01/08 07:59:30;;;;;;;;;;;27.60;39.20;;;;;;5052271;28;19920;-53
2021/01/08 08:01:55;;;;;;;;;;;27.50;39.30;;;;;;5049888;28;20263;-58
2021/01/08 08:04:22;;;;;;;;;;;27.50;39.60;;;;;;5051497;28;19960;-63
2021/01/08 08:06:47;;;;;;;;;;;27.50;39.60;;;;;;5049669;28;19909;-63
2021/01/08 08:09:20;;;;;;;;;;;27.60;39.50;;;;;;5067654;28;19923;-63
2021/01/08 08:11:45;;;;;;;;;;;27.70;39.50;;;;;;5052905;28;19913;-62
2021/01/08 08:14:14;;;;;;;;;;;27.70;39.50;;;;;;5053481;28;19913;-60
2021/01/08 08:16:40;;;;;;;;;;;27.70;39.40;;;;;;5052230;28;19920;-60
2021/01/08 08:19:06;;;;;;;;;;;27.80;39.50;;;;;;5052127;28;19913;-58
2021/01/08 08:21:32;;;;;;;;;;;27.80;39.50;;;;;;5052030;28;19913;-57
2021/01/08 08:23:57;;;;;;;;;;;27.80;39.50;;;;;;5074666;28;20289;-54
2021/01/08 08:26:23;;;;;;;;;;;27.80;39.50;;;;;;5092374;28;19908;-57
2021/01/08 08:28:49;;;;;;;;;;;;;;;;;;5092253;28;19956;-63
2021/01/08 08:31:15;;;;;;;;;;;27.70;39.10;;;;;;5092340;28;20387;-60
2021/01/08 08:33:42;;;;;;;;;;;27.70;39.50;;;;;;5094482;28;19927;-61
2021/01/08 08:36:08;;;;;;;;;;;27.80;39.50;;;;;;5096105;28;19908;-61
2021/01/08 08:38:33;;;;;;;;;;;27.80;39.40;;;;;;5085344;28;20450;-58
2021/01/08 08:41:10;;;;;;;;;;;27.80;39.40;;;;;;5075621;28;19908;-59
2021/01/08 08:43:35;;;;;;;;;;;27.80;39.40;;;;;;5075401;28;20354;-62
2021/01/08 08:46:01;;;;;;;;;;;27.80;39.30;;;;;;5075515;28;19919;-61
2021/01/08 08:48:26;;;;;;;;;;;27.80;39.50;;;;;;5075142;28;20290;-62
2021/01/08 08:50:52;;;;;;;;;;;27.80;39.40;;;;;;5075103;28;19953;-61
2021/01/08 08:53:17;;;;;;;;;;;27.80;39.50;;;;;;5087993;28;19928;-60
2021/01/08 08:55:43;;;;;;;;;;;27.80;39.50;;;;;;5088862;28;20339;-58
2021/01/08 08:58:10;;;;;;;;;;;27.80;39.40;;;;;;5095419;28;19908;-57
2021/01/08 09:00:35;;;;;;;;;;;27.90;39.60;;;;;;5093506;28;20056;-57
2021/01/08 09:03:14;;;;;;;;;;;27.80;39.50;;;;;;5095185;28;19947;-57
2021/01/08 09:05:39;;;;;;;;;;;27.80;39.40;;;;;;5095581;28;19931;-68
2021/01/08 09:08:09;;;;;;;;;;;27.80;39.70;;;;;;5094262;28;20347;-67
2021/01/08 09:10:35;;;;;;;;;;;27.80;39.60;;;;;;5087771;28;19912;-67
2021/01/08 09:13:04;;;;;;;;;;;27.80;39.60;;;;;;5075911;28;19927;-61
2021/01/08 09:15:30;;;;;;;;;;;27.80;39.70;;;;;;5075078;28;20003;-71
2021/01/08 09:18:12;;;;;;;;;;;27.80;39.70;;;;;;5074785;28;19920;-63
2021/01/08 09:20:40;;;;;;;;;;;27.80;39.70;;;;;;5090313;28;19919;-62
2021/01/08 09:23:05;;;;;;;;;;;27.70;39.70;;;;;;5090665;28;20033;-63
2021/01/08 09:25:32;;;;;;;;;;;27.70;39.90;;;;;;5090288;28;19940;-65
2021/01/08 09:27:57;;;;;;;;;;;27.70;39.70;;;;;;5087499;28;19920;-65
2021/01/08 09:30:23;;;;;;;;;;;27.70;39.60;;;;;;5094694;28;19944;-63
2021/01/08 09:32:48;;;;;;;;;;;27.70;39.50;;;;;;5094976;28;19967;-63
2021/01/08 09:35:14;;;;;;;;;;;27.70;39.60;;;;;;5091499;28;20396;-63
2021/01/08 09:37:47;;;;;;;;;;;27.70;39.50;;;;;;5094332;28;19912;-63
2021/01/08 09:40:14;;;;;;;;;;;27.70;39.50;;;;;;5085137;28;19951;-63
2021/01/08 09:42:39;;;;;;;;;;;27.80;39.50;;;;;;5094377;28;20002;-63
2021/01/08 09:45:17;;;;;;;;;;;27.70;39.40;;;;;;5093694;28;19940;-63
2021/01/08 09:47:42;;;;;;;;;;;27.70;39.30;;;;;;5094583;28;19909;-63
2021/01/08 09:50:08;;;;;;;;;;;27.80;39.30;;;;;;5094525;28;19965;-64
2021/01/08 09:52:34;;;;;;;;;;;27.80;39.30;;;;;;5094571;28;19923;-65
2021/01/08 09:54:59;;;;;;;;;;;27.80;39.30;;;;;;5093700;28;19908;-65
2021/01/08 09:57:30;;;;;;;;;;;27.80;39.30;;;;;;5086529;28;19912;-63
2021/01/08 09:59:57;;;;;;;;;;;27.80;39.30;;;;;;5074135;28;19971;-63
2021/01/08 10:02:33;;;;;;;;;;;27.70;39.30;;;;;;5074257;28;19919;-63
2021/01/08 10:04:59;;;;;;;;;;;27.80;39.30;;;;;;5089409;28;19908;-65
2021/01/08 10:07:24;;;;;;;;;;;27.80;39.30;;;;;;5074130;28;19916;-63
2021/01/08 10:09:51;;;;;;;;;;;27.80;39.50;;;;;;5073674;28;20287;-63
2021/01/08 10:12:20;;;;;;;;;;;27.80;39.30;;;;;;5078232;28;19924;-64
2021/01/08 10:14:46;;;;;;;;;;;27.80;39.70;;;;;;5094085;28;19909;-63
2021/01/08 10:17:15;;;;;;;;;;;27.80;39.70;;;;;;5093761;28;19908;-63
2021/01/08 10:19:41;;;;;;;;;;;27.80;39.60;;;;;;5094192;28;19912;-63
2021/01/08 10:22:06;;;;;;;;;;;27.80;39.70;;;;;;5093238;28;20292;-63
2021/01/08 10:24:32;;;;;;;;;;;27.80;39.60;;;;;;5076778;28;19913;-63
2021/01/08 10:26:57;;;;;;;;;;;27.80;39.60;;;;;;5073691;28;19909;-63
2021/01/08 10:29:36;;;;;;;;;;;27.80;39.50;;;;;;5073159;28;20023;-63
2021/01/08 10:32:05;;;;;;;;;;;27.80;39.80;;;;;;5073225;28;20336;-63
2021/01/08 10:34:34;;;;;;;;;;;27.80;39.90;;;;;;5073275;28;19958;-63
2021/01/08 10:37:00;;;;;;;;;;;27.80;39.90;;;;;;5073139;28;20087;-64
2021/01/08 10:39:25;;;;;;;;;;;27.80;40.00;;;;;;5092046;28;20018;-64
2021/01/08 10:41:51;;;;;;;;;;;27.80;40.00;;;;;;5093602;28;19908;-64
2021/01/08 10:44:16;;;;;;;;;;;27.70;40.00;;;;;;5093573;28;19908;-64
2021/01/08 10:46:42;;;;;;;;;;;27.80;40.20;;;;;;5082027;28;20363;-64
2021/01/08 10:49:07;;;;;;;;;;;27.80;40.00;;;;;;5073054;28;19908;-64
2021/01/08 10:51:33;;;;;;;;;;;27.80;40.00;;;;;;5072902;28;20345;-64
2021/01/08 10:53:58;;;;;;;;;;;27.80;39.90;;;;;;5073184;28;19916;-64
2021/01/08 10:56:30;;;;;;;;;;;27.80;40.00;;;;;;5072852;28;19921;-64
2021/01/08 10:58:55;;;;;;;;;;;27.80;39.90;;;;;;5072925;28;19919;-63
2021/01/08 11:01:21;;;;;;;;;;;27.80;39.90;;;;;;5070402;28;19912;-63
2021/01/08 11:03:46;;;;;;;;;;;27.80;40.40;;;;;;5071137;28;20398;-63
2021/01/08 11:06:15;;;;;;;;;;;27.90;41.10;;;;;;5072823;28;19930;-64
2021/01/08 11:08:41;;;;;;;;;;;27.80;40.30;;;;;;5072687;28;20377;-63
2021/01/08 11:11:06;;;;;;;;;;;27.80;39.30;;;;;;5072914;28;19999;-63
2021/01/08 11:13:32;;;;;;;;;;;27.90;40.50;;;;;;5072775;28;19916;-63
2021/01/08 11:15:57;;;;;;;;;;;27.90;40.40;;;;;;5072588;28;19909;-64
2021/01/08 11:18:23;;;;;;;;;;;27.80;39.00;;;;;;5089077;28;19958;-63
2021/01/08 11:20:49;;;;;;;;;;;27.80;39.40;;;;;;5093009;28;19981;-63
2021/01/08 11:23:14;;;;;;;;;;;27.80;39.50;;;;;;5092723;28;19943;-65
2021/01/08 11:25:41;;;;;;;;;;;27.80;39.60;;;;;;5092944;28;19916;-65
2021/01/08 11:28:06;;;;;;;;;;;27.80;39.60;;;;;;5093033;28;19915;-65
2021/01/08 11:30:32;;;;;;;;;;;27.80;39.70;;;;;;5092542;28;20314;-63
2021/01/08 11:32:57;;;;;;;;;;;27.70;39.70;;;;;;5090824;28;20051;-63
2021/01/08 11:35:23;;;;;;;;;;;27.80;39.80;;;;;;5092598;28;19934;-63
2021/01/08 11:37:48;;;;;;;;;;;27.80;39.90;;;;;;5093003;28;20392;-63
2021/01/08 11:40:14;;;;;;;;;;;27.80;39.90;;;;;;5092488;28;19912;-63
2021/01/08 11:42:39;;;;;;;;;;;27.70;40.00;;;;;;5092606;28;19912;-63
2021/01/08 11:45:05;;;;;;;;;;;;;;;;;;5092599;28;19951;-60
2021/01/08 11:47:31;;;;;;;;;;;;;;;;;;5088156;28;19999;-63
2021/01/08 11:49:57;;;;;;;;;;;;;;;;;;5092486;28;20411;-63
2021/01/08 11:52:23;;;;;;;;;;;;;;;;;;5092834;28;19916;-65
2021/01/08 11:54:49;;;;;;;;;;;;;;;;;;5092467;28;19908;-67
2021/01/08 11:57:15;;;;;;;;;;;;;;;;;;5092598;28;20009;-65
2021/01/08 11:59:40;;;;;;;;;;;26.60;33.50;;;;;;5092537;28;20282;-67
2021/01/08 12:02:06;;;;;;;;;;;27.00;34.00;;;;;;5089574;28;19916;-64
2021/01/08 12:04:34;;;;;;;;;;;27.20;33.90;;;;;;5079554;28;19912;-64
2021/01/08 12:07:02;;;;;;;;;;;27.40;34.00;;;;;;5072399;28;19935;-63
2021/01/08 12:09:28;;;;;;;;;;;27.50;34.00;;;;;;5075852;28;19987;-66
2021/01/08 12:11:57;;;;;;;;;;;27.60;34.20;;;;;;5076135;28;19946;-64
2021/01/08 12:14:23;;;;;;;;;;;27.70;34.20;;;;;;5076129;28;20003;-62
2021/01/08 12:16:48;;;;;;;;;;;27.80;34.40;;;;;;5076166;28;20364;-62
2021/01/08 12:19:15;;;;;;;;;;;27.80;34.60;;;;;;5088106;28;19912;-62
2021/01/08 12:21:50;;;;;;;;;;;27.80;34.60;;;;;;5096459;28;20559;-59
2021/01/08 12:24:15;;;;;;;;;;;27.90;34.80;;;;;;5096387;28;19958;-61
2021/01/08 12:26:41;;;;;;;;;;;27.90;34.90;;;;;;5096314;28;20009;-61
2021/01/08 12:29:06;;;;;;;;;;;27.90;35.00;;;;;;5095815;28;19946;-66
2021/01/08 12:31:32;;;;;;;;;;;27.90;35.10;;;;;;5092792;28;19912;-63
2021/01/08 12:33:57;;;;;;;;;;;28.00;35.30;;;;;;5096143;28;19924;-60
2021/01/08 12:36:23;;;;;;;;;;;28.00;35.30;;;;;;5096185;28;20382;-66
2021/01/08 12:38:50;;;;;;;;;;;28.00;35.40;;;;;;5095107;28;20380;-64
2021/01/08 12:41:15;;;;;;;;;;;28.00;35.60;;;;;;5096049;28;19939;-64
2021/01/08 12:43:41;;;;;;;;;;;28.00;35.60;;;;;;5095822;28;19920;-58
2021/01/08 12:46:06;;;;;;;;;;;28.00;36.10;;;;;;5094163;28;19944;-61
2021/01/08 12:48:32;;;;;;;;;;;27.80;36.10;;;;;;5075610;28;19908;-65
2021/01/08 12:50:57;;;;;;;;;;;27.80;36.40;;;;;;5075319;28;20366;-64
2021/01/08 12:53:23;;;;;;;;;;;27.80;36.50;;;;;;5075390;28;19917;-65
2021/01/08 12:55:48;;;;;;;;;;;27.80;36.00;;;;;;5075463;28;20429;-61
2021/01/08 12:58:14;;;;;;;;;;;27.90;36.20;;;;;;5075209;28;19935;-60
2021/01/08 13:00:39;;;;;;;;;;;27.80;36.30;;;;;;5075042;28;20366;-72
2021/01/08 13:03:05;;;;;;;;;;;27.80;36.50;;;;;;5094824;28;19908;-64
2021/01/08 13:05:31;;;;;;;;;;;27.90;36.50;;;;;;5082329;28;19923;-66
2021/01/08 13:07:56;;;;;;;;;;;28.00;36.30;;;;;;5091755;28;20402;-66
2021/01/08 13:10:22;;;;;;;;;;;28.00;36.20;;;;;;5095210;28;19912;-66
2021/01/08 13:12:47;;;;;;;;;;;28.10;36.20;;;;;;5095228;28;20015;-64
2021/01/08 13:15:13;;;;;;;;;;;28.10;36.10;;;;;;5095407;28;19914;-69
2021/01/08 13:17:39;;;;;;;;;;;28.20;36.30;;;;;;5095050;28;20381;-65
2021/01/08 13:20:04;;;;;;;;;;;28.20;36.10;;;;;;5095050;28;19908;-66
2021/01/08 13:22:30;;;;;;;;;;;28.20;36.20;;;;;;5094236;28;20376;-63
2021/01/08 13:24:55;;;;;;;;;;;28.20;36.40;;;;;;5095147;28;19909;-63
2021/01/08 13:27:21;;;;;;;;;;;28.20;36.50;;;;;;5094915;28;20392;-60
2021/01/08 13:29:47;;;;;;;;;;;28.20;36.30;;;;;;5094546;28;19924;-63
2021/01/08 13:32:12;;;;;;;;;;;28.20;36.40;;;;;;5095046;28;19960;-75
2021/01/08 13:34:38;;;;;;;;;;;28.30;36.50;;;;;;5094800;28;20392;-63
2021/01/08 13:37:06;;;;;;;;;;;28.30;36.50;;;;;;5081528;28;19909;-63
2021/01/08 13:39:32;;;;;;;;;;;28.30;36.80;;;;;;5074380;28;20325;-64
2021/01/08 13:42:01;;;;;;;;;;;28.30;36.80;;;;;;5074308;28;19919;-61
2021/01/08 13:44:26;;;;;;;;;;;28.30;36.80;;;;;;5074343;28;20346;-62
2021/01/08 13:46:52;;;;;;;;;;;28.30;37.00;;;;;;5074346;28;19970;-64
2021/01/08 13:49:17;;;;;;;;;;;28.20;36.70;;;;;;5074564;28;19920;-64
2021/01/08 13:51:43;;;;;;;;;;;28.20;37.00;;;;;;5077926;28;20298;-64
2021/01/08 13:54:08;;;;;;;;;;;28.20;36.90;;;;;;5074371;28;19959;-66
2021/01/08 13:56:34;;;;;;;;;;;28.20;36.90;;;;;;5074016;28;20003;-63
2021/01/08 13:58:59;;;;;;;;;;;28.30;37.10;;;;;;5074213;28;19909;-63
2021/01/08 14:01:25;;;;;;;;;;;28.20;37.40;;;;;;5073699;28;20007;-63
2021/01/08 14:03:50;;;;;;;;;;;28.20;36.90;;;;;;5075246;28;19912;-62
2021/01/08 14:06:22;;;;;;;;;;;28.20;37.10;;;;;;5073793;28;19912;-61
2021/01/08 14:08:48;;;;;;;;;;;28.20;37.20;;;;;;5088050;28;19919;-60
2021/01/08 14:11:26;;;;;;;;;;;28.20;37.50;;;;;;5073622;28;19912;-62
2021/01/08 14:13:52;;;;;;;;;;;28.20;37.30;;;;;;5073857;28;20014;-66
2021/01/08 14:16:18;;;;;;;;;;;28.10;37.30;;;;;;5073875;28;20322;-67